createdAt,value
2023-04-15T00:02:49.484Z,0.1
2023-04-15T00:07:55.534Z,0
2023-04-15T00:13:01.669Z,0
2023-04-15T00:18:07.778Z,0.1
2023-04-15T00:23:13.928Z,0.3
2023-04-15T00:28:20.099Z,0.4
2023-04-15T00:33:26.224Z,0.4
2023-04-15T00:38:32.361Z,0.4
2023-04-15T00:43:38.518Z,0.5
2023-04-15T00:48:44.639Z,0.5
2023-04-15T00:53:50.792Z,0.4
2023-04-15T00:58:56.920Z,0.1
2023-04-15T01:04:03.094Z,0
2023-04-15T01:09:09.178Z,-0.1
2023-04-15T01:14:15.354Z,-0.1
2023-04-15T01:19:21.451Z,0
2023-04-15T01:24:27.613Z,-0.1
2023-04-15T01:29:33.759Z,0
2023-04-15T01:34:39.879Z,0
2023-04-15T01:39:46.026Z,-0.1
2023-04-15T01:44:52.170Z,-0.2
2023-04-15T01:49:58.320Z,-0.2
2023-04-15T01:55:04.472Z,-0.3
2023-04-15T02:00:10.615Z,-0.2
2023-04-15T02:05:16.737Z,-0.3
2023-04-15T02:10:22.888Z,-0.2
2023-04-15T02:15:29.016Z,0
2023-04-15T02:20:35.158Z,0
2023-04-15T02:25:41.303Z,0
2023-04-15T02:30:47.446Z,0
2023-04-15T02:35:53.589Z,-0.1
2023-04-15T02:40:59.730Z,-0.2
2023-04-15T02:46:05.911Z,-0.2
2023-04-15T02:51:12.002Z,-0.2
2023-04-15T02:56:18.136Z,-0.1
2023-04-15T03:01:24.316Z,0
2023-04-15T03:06:30.467Z,0
2023-04-15T03:11:36.591Z,0
2023-04-15T03:16:42.685Z,0.1
2023-04-15T03:21:48.846Z,0.2
2023-04-15T03:26:54.966Z,0.2
2023-04-15T03:32:01.107Z,0.3
2023-04-15T03:37:07.269Z,0.4
2023-04-15T03:42:13.375Z,0.3
2023-04-15T03:47:29.812Z,0
2023-04-15T03:52:36.119Z,-0.2
2023-04-15T03:57:42.096Z,-0.1
2023-04-15T04:02:48.294Z,0
2023-04-15T04:07:54.363Z,0
2023-04-15T04:13:00.534Z,-0.2
2023-04-15T04:18:06.669Z,-0.1
2023-04-15T04:23:12.798Z,-0.1
2023-04-15T04:28:18.986Z,-0.2
2023-04-15T04:33:25.064Z,-0.1
2023-04-15T04:38:31.199Z,-0.1
2023-04-15T04:43:37.358Z,-0.1
2023-04-15T04:48:44.048Z,0
2023-04-15T04:53:49.634Z,0
2023-04-15T04:58:55.783Z,0
2023-04-15T05:04:02.020Z,0.1
2023-04-15T05:09:08.078Z,0
2023-04-15T05:14:14.182Z,-0.2
2023-04-15T05:19:20.315Z,-0.1
2023-04-15T05:24:26.469Z,0.2
2023-04-15T05:29:32.609Z,0
2023-04-15T05:34:38.742Z,0
2023-04-15T05:39:44.902Z,0
2023-04-15T05:44:51.093Z,0
2023-04-15T05:49:57.190Z,-0.1
2023-04-15T05:55:03.350Z,-0.2
2023-04-15T06:00:09.439Z,-0.2
2023-04-15T06:05:15.603Z,-0.2
2023-04-15T06:10:21.713Z,-0.2
2023-04-15T06:15:27.850Z,0
2023-04-15T06:20:34.006Z,0.4
2023-04-15T06:25:40.135Z,0.7
2023-04-15T06:30:46.309Z,0.9
2023-04-15T06:35:52.433Z,1.1
2023-04-15T06:40:58.576Z,1.7
2023-04-15T06:46:04.753Z,2
2023-04-15T06:51:10.862Z,2.4
2023-04-15T06:56:16.994Z,2.8
2023-04-15T07:01:23.211Z,4.4
2023-04-15T07:06:29.260Z,3.3
2023-04-15T07:11:35.410Z,2
2023-04-15T07:16:41.646Z,1.5
2023-04-15T07:21:47.708Z,1.5
2023-04-15T07:26:53.862Z,2.1
2023-04-15T07:31:59.969Z,2.4
2023-04-15T07:37:06.144Z,2.2
2023-04-15T07:42:12.271Z,2.1
2023-04-15T07:47:18.439Z,2.1
2023-04-15T07:52:24.554Z,2
2023-04-15T07:57:30.677Z,2.2
2023-04-15T08:02:38.097Z,2.3
2023-04-15T08:07:43.019Z,2.4
2023-04-15T08:12:49.113Z,2.3
2023-04-15T08:17:55.292Z,2.1
2023-04-15T08:23:01.371Z,1.5
2023-04-15T08:28:07.516Z,1.1
2023-04-15T08:33:13.682Z,0.8
2023-04-15T08:38:19.811Z,0.5
2023-04-15T08:43:25.924Z,0.6
2023-04-15T08:48:32.076Z,0.5
2023-04-15T08:53:38.229Z,0.4
2023-04-15T08:58:44.393Z,0.7
2023-04-15T09:03:50.651Z,1.1
2023-04-15T09:08:56.640Z,1.3
2023-04-15T09:14:02.769Z,1.1
2023-04-15T09:19:08.930Z,1
2023-04-15T09:24:15.058Z,1.1
2023-04-15T09:29:21.187Z,1.5
2023-04-15T09:34:27.318Z,1.5
2023-04-15T09:39:33.514Z,1.7
2023-04-15T09:44:39.617Z,1.7
2023-04-15T09:49:45.821Z,1.4
2023-04-15T09:54:51.896Z,1.3
2023-04-15T09:59:58.050Z,1.5
2023-04-15T10:05:04.192Z,1.1
2023-04-15T10:10:10.349Z,0.7
2023-04-15T10:15:16.469Z,1.1
2023-04-15T10:20:22.696Z,1.5
2023-04-15T10:25:28.738Z,2.2
2023-04-15T10:30:34.916Z,2.2
2023-04-15T10:35:41.041Z,2.5
2023-04-15T10:40:47.201Z,2.8
2023-04-15T10:45:53.287Z,2.6
2023-04-15T10:50:59.449Z,2.6
2023-04-15T10:56:05.594Z,2.5
2023-04-15T11:01:11.717Z,2.5
2023-04-15T11:06:17.866Z,2.7
2023-04-15T11:11:24.023Z,2.2
2023-04-15T11:16:30.171Z,2.3
2023-04-15T11:21:36.325Z,1.6
2023-04-15T11:26:42.438Z,1.3
2023-04-15T11:31:48.676Z,1.8
2023-04-15T11:36:54.726Z,1.9
2023-04-15T11:42:00.852Z,1.9
2023-04-15T11:47:06.999Z,2
2023-04-15T11:52:13.150Z,1.5
2023-04-15T11:57:19.294Z,1.7
2023-04-15T12:02:25.510Z,1.7
2023-04-15T12:07:31.540Z,1.3
2023-04-15T12:12:37.703Z,1.4
2023-04-15T12:17:51.230Z,1.4
2023-04-15T12:22:49.980Z,1.8
2023-04-15T12:27:56.126Z,1.7
2023-04-15T12:33:02.376Z,1.8
2023-04-15T12:38:08.414Z,2.1
2023-04-15T12:43:14.531Z,2.1
2023-04-15T12:48:20.673Z,2.1
2023-04-15T12:53:26.824Z,1.9
2023-04-15T12:58:32.968Z,2.1
2023-04-15T13:03:39.200Z,2.2
2023-04-15T13:08:55.294Z,2
2023-04-15T13:13:51.375Z,1.7
2023-04-15T13:18:57.503Z,1.5
2023-04-15T13:24:04.105Z,1.6
2023-04-15T13:29:09.783Z,1.7
2023-04-15T13:34:15.931Z,1.6
2023-04-15T13:39:22.069Z,1.5
2023-04-15T13:44:28.202Z,1.9
2023-04-15T13:49:34.371Z,2
2023-04-15T13:54:40.505Z,2.6
2023-04-15T13:59:46.625Z,2.8
2023-04-15T14:04:52.770Z,3.2
2023-04-15T14:09:58.915Z,3
2023-04-15T14:15:05.067Z,3
2023-04-15T14:20:11.214Z,3.3
2023-04-15T14:25:26.860Z,2.7
2023-04-15T14:30:23.476Z,2.5
2023-04-15T14:35:29.618Z,2.1
2023-04-15T14:40:35.756Z,2
2023-04-15T14:45:42.397Z,2.2
2023-04-15T14:50:48.044Z,2
2023-04-15T14:55:54.179Z,2
2023-04-15T15:01:00.328Z,2.1
2023-04-15T15:06:06.452Z,2.2
2023-04-15T15:11:12.586Z,2.1
2023-04-15T15:16:18.749Z,1.9
2023-04-15T15:21:24.876Z,2.1
2023-04-15T15:26:31.037Z,2.3
2023-04-15T15:31:37.186Z,2.1
2023-04-15T15:36:43.314Z,2.1
2023-04-15T15:41:49.454Z,2.5
2023-04-15T15:46:55.657Z,2.4
2023-04-15T15:52:01.729Z,2.3
2023-04-15T15:57:07.890Z,2.2
2023-04-15T16:02:14.119Z,1.9
2023-04-15T16:07:20.162Z,2
2023-04-15T16:12:26.335Z,2.1
2023-04-15T16:17:32.461Z,2.2
2023-04-15T16:22:38.565Z,2.3
2023-04-15T16:27:57.575Z,2.3
2023-04-15T16:32:50.897Z,2.3
2023-04-15T16:37:57.030Z,2.1
2023-04-15T16:43:03.114Z,1.8
2023-04-15T16:48:09.254Z,1.7
2023-04-15T16:53:15.417Z,1.6
2023-04-15T16:58:21.560Z,1.5
2023-04-15T17:03:27.764Z,1.6
2023-04-15T17:08:33.832Z,1.4
2023-04-15T17:13:39.983Z,1.2
2023-04-15T17:18:46.086Z,1.4
2023-04-15T17:23:52.244Z,1.4
2023-04-15T17:28:58.410Z,1.2
2023-04-15T17:34:07.922Z,1
2023-04-15T17:39:10.674Z,0.9
2023-04-15T17:44:17.846Z,0.8
2023-04-15T17:49:22.972Z,0.7
2023-04-15T17:54:29.087Z,0.8
2023-04-15T17:59:35.248Z,0.8
2023-04-15T18:04:41.583Z,0.6
2023-04-15T18:09:47.541Z,0.4
2023-04-15T18:14:53.671Z,0.3
2023-04-15T18:19:59.797Z,0.5
2023-04-15T18:25:05.940Z,0.7
2023-04-15T18:30:12.061Z,0.8
2023-04-15T18:35:18.219Z,0.7
2023-04-15T18:40:24.361Z,0.7
2023-04-15T18:45:30.540Z,0.9
2023-04-15T18:50:36.652Z,0.9
2023-04-15T18:55:42.782Z,0.7
2023-04-15T19:00:48.937Z,0.8
2023-04-15T19:05:55.061Z,0.9
2023-04-15T19:11:01.191Z,0.9
2023-04-15T19:16:07.382Z,0.5
2023-04-15T19:21:13.478Z,0.2
2023-04-15T19:26:19.616Z,0
2023-04-15T19:31:25.895Z,0
2023-04-15T19:36:31.890Z,0
2023-04-15T19:41:38.032Z,0
2023-04-15T19:46:44.156Z,0
2023-04-15T19:51:50.321Z,0
2023-04-15T19:56:56.472Z,0
2023-04-15T20:02:02.789Z,0
2023-04-15T20:07:08.776Z,0
2023-04-15T20:12:49.109Z,0
2023-04-15T20:17:21.060Z,0
2023-04-15T20:22:27.162Z,0.1
2023-04-15T20:27:33.307Z,-0.1
2023-04-15T20:32:39.434Z,0
2023-04-15T20:37:45.587Z,0
2023-04-15T20:42:51.757Z,-0.2
2023-04-15T20:47:57.889Z,-0.4
2023-04-15T20:53:14.251Z,-0.2
2023-04-15T20:58:20.398Z,-0.4
2023-04-15T21:03:26.590Z,-0.1
2023-04-15T21:08:32.706Z,-0.2
2023-04-15T21:13:38.838Z,-0.1
2023-04-15T21:18:44.995Z,-0.2
2023-04-15T21:23:51.141Z,-0.3
2023-04-15T21:28:57.248Z,-0.3
2023-04-15T21:34:03.385Z,-0.3
2023-04-15T21:39:09.552Z,0
2023-04-15T21:44:15.672Z,-0.2
2023-04-15T21:49:22.687Z,0.1
2023-04-15T21:54:27.961Z,0.1
2023-04-15T21:59:34.093Z,0.1
2023-04-15T22:04:40.238Z,-0.1
2023-04-15T22:09:46.398Z,-0.5
2023-04-15T22:14:52.515Z,-0.6
2023-04-15T22:19:58.680Z,-0.5
2023-04-15T22:25:04.812Z,-0.3
2023-04-15T22:30:10.983Z,-0.4
2023-04-15T22:35:17.078Z,-0.3
2023-04-15T22:40:23.197Z,-0.2
2023-04-15T22:45:29.375Z,0
2023-04-15T22:50:35.502Z,0
2023-04-15T22:55:41.642Z,-0.2
2023-04-15T23:00:47.845Z,-0.1
2023-04-15T23:05:53.911Z,-0.2
2023-04-15T23:11:00.090Z,-0.1
2023-04-15T23:16:06.339Z,-0.1
2023-04-15T23:21:12.364Z,-0.3
2023-04-15T23:26:18.480Z,-0.2
2023-04-15T23:31:24.694Z,-0.2
2023-04-15T23:36:30.758Z,-0.2
2023-04-15T23:41:36.896Z,-0.3
2023-04-15T23:46:43.049Z,-0.2
2023-04-15T23:51:49.178Z,-0.2
2023-04-15T23:56:55.329Z,0
